Sacramento, California
Traffic Map
Current Weather Conditions
Sacramento, California
Clear
Clear
74°
Feels Like: 74°
Wind Chill: 74° Ceiling: Unl
Heat Index: 74° Visibility: 10mi
Dew Point: 50° Wind: 6mph
Humidity: 43% Direction: 190° (S)
Pressure: 29.82in Gusts: 0mph
Raw Report DataKSAC 160253Z 19005KT 10SM CLR 23/10 A2982 RMK AO2 SLP098 T02330100 52006
Traffic Incident Summary
Active as of:
Severity:
Category:
InformationThere was an issue retrieving the traffic information for this location. Please try a different location or try again shortly.
Advertisements
Track Severe Weather on mobile